KSFFKJAC

Guest
Details From KSFF - Felts Fld
To KJAC - Jackson Hole
Flight Number -
Tags Generated
Created
Modified
Stats Distance 369 nm / 684 km
Max Altitude 0 ft / 0 m
Waypoints 3
Social Downloads 0
Likes 0
Share VATSIM

Download

Looking for another format? Having issues loading an existing format? Contact us
Advertisement - Login to hide

Notes

Generated

Route

KSFF TIHQI KJAC

ID Type Via Altitude Latitude Longitude Leg Dist Tot Dist Heading (true) Name
O KSFF APT - 0 ft / 0 m 47.68261˚ -117.32151˚ - 0 nm - Felts Fld
TIHQI FIX - 0 ft / 0 m 43.82581˚ -111.09750˚ 348 nm 348 nm 129° / 134° -
O KJAC APT - 0 ft / 0 m 43.59842˚ -110.74209˚ 20 nm 369 nm 131° / 132° -

Altitude Profile

Advertisement - Login to hide

Weather


0- 5 10 15 20 25 30 35+ Temperature / ° C

Clouds and Precipitation
Forecast for 2018-05-28 00:00 UTC. Updated 2 hours ago

Ground ~20,000 ft ~40,000 ft Winds

KSFF

Details ICAO KSFF (SFF)
Name Felts Fld
Region United States
Timezone America/Los_Angeles (UTC-7.0)
Stats Elevation 1,953 ft / 595 m (AMSL)
Location 47.683202° -117.321057°
Runways 3
Magnetic Variation 14.479° E

METAR

Not found

TAF

TAF KSFF 272320Z 2800/2824 22005KT P6SM FEW060 SCT250 FM280300 VRB02KT P6SM SCT250 FM282000 23007G12KT P6SM FEW060 SCT250

Decode

Departure Runways

ID Width Length Bearing (true) Bearing (mag) Surface Threshold Offset Overrun Length
03C 59 ft / 18 m 1,692 ft / 516 m 54.10° 39.62° Grass 0 ft / 0 m 0 ft / 0 m
03L 151 ft / 46 m 4,491 ft / 1,369 m 54.10° 39.62° Concrete 0 ft / 0 m 0 ft / 0 m
03R 75 ft / 23 m 3,053 ft / 931 m 54.13° 39.65° Asphalt 413 ft / 126 m 0 ft / 0 m
21C 59 ft / 18 m 1,692 ft / 516 m 234.10° 219.62° Grass 0 ft / 0 m 0 ft / 0 m
21L 75 ft / 23 m 3,053 ft / 931 m 234.13° 219.65° Asphalt 0 ft / 0 m 0 ft / 0 m
21R 151 ft / 46 m 4,491 ft / 1,369 m 234.11° 219.63° Concrete 0 ft / 0 m 0 ft / 0 m

KJAC

Details ICAO KJAC (JAC)
Name Jackson Hole
Region United States
Timezone America/Denver (UTC-6.0)
Stats Elevation 6,451 ft / 1,966 m (AMSL)
Location 43.607352° -110.737742°
Runways 1
Magnetic Variation 11.346° E

METAR

Not found

TAF

TAF KJAC 272333Z 2800/2824 01014KT P6SM -SHRA VCTS BKN050CB OVC080 FM280300 01011KT P6SM VCSH BKN050 FM281700 20008KT P6SM VCTS BKN050CB AMD LTD TO CLD VIS AND WIND

Decode

Destination Runways

ID Width Length Bearing (true) Bearing (mag) Surface Threshold Offset Overrun Length
01 151 ft / 46 m 6,285 ft / 1,916 m 19.50° 8.15° Asphalt 0 ft / 0 m 308 ft / 94 m
19 151 ft / 46 m 6,285 ft / 1,916 m 199.50° 188.15° Asphalt 0 ft / 0 m 305 ft / 93 m

Approach Navaids

Runway Type Ident Frequency Range Bearing (true) Bearing (mag) Slope Elevation
19 Localiser IJAC 109.10 MHz 18 nm / 33 km 199.36° 188.01° - 6,408 ft / 1,953 m (AMSL)
19 Glidescope IJAC 109.10 MHz 10 nm / 19 km 199.36° 188.01° 3.00° 6,441 ft / 1,963 m (AMSL)
19 DME IJAC 109.10 MHz 18 nm / 33 km - - - 6,415 ft / 1,955 m (AMSL)